Walther Herwig III — DBFR — position and weather

sailwx.info

Track history (hours):
 
Tides and Currents Weather Stations Pressure Air Temp Water Temp Dewpoint Dewpoint Depression Visibility Wind Speed Wind Dir Waves Ship Positions

Oceanographic research ship Walther Herwig III (Germany)

Detailed information on ship capabilities available from University of Delaware's Ocean Information Center.

Last reported at 2017-Dec-11 16:14 UTC. Time now 2017-Dec-12 06:29 UTC.
Position N 55°05' E 011°03'.

Length 63.2 m; beam 14.8 m; draft 5.5 m.

Type: Fishing. MMSI: 211215500.

Date/timePositionNaut miles runAvg speedWind from/ knotsBaromVisibWave heightAir tempDewpointWater temp
2017-Dec-11 16:14N 55°05' E 011°03'622.0
2017-Dec-11 16:00N 55°00' E 011°00'249.6 040 / 23985.4 2.1-0.3 5.4
2017-Dec-11 15:57N 55°01' E 011°03'613.2
2017-Dec-11 15:31N 54°56' E 010°57'714.0
2017-Dec-11 15:01N 54°50' E 010°53'2114.5
2017-Dec-11 15:00N 54°48' E 010°54'511.1 040 / 17985.5 2.4-0.1 5.9
2017-Dec-11 14:30N 54°43' E 010°53'612.8
2017-Dec-11 14:01N 54°38' E 010°46'3176.8
2017-Dec-11 14:00N 54°36' E 010°42'4 7.3 040 / 19985.9 2.6-0.6 5.9
2017-Dec-11 13:26N 54°34' E 010°36'818.2
2017-Dec-11 13:00N 54°30' E 010°24'1413.9 040 / 17986.5 2.7-0.4 5.8
2017-Dec-11 12:00N 54°18' E 010°12'4 3.5 030 / 10986.3 2.3-0.3 6.2
2017-Dec-11 11:00N 54°18' E 010°06'0 0.0 040 / 10987.2 2.7-0.3 6.5
2017-Dec-11 10:00N 54°18' E 010°06'0 0.0 060 / 6987.4 2.5-1.0 6.2
2017-Dec-11 09:00N 54°18' E 010°06'0 0.0 040 / 10986.0 2.9 0.6 6.3
2017-Dec-11 08:00N 54°18' E 010°06'0 0.0 030 / 14985.0 2.5-1.0 6.1
2017-Dec-11 07:00N 54°18' E 010°06'0 0.0 030 / 8984.6 2.0-2.3 6.2
2017-Dec-11 06:00N 54°18' E 010°06'0 0.0 030 / 6985.6 1.9-2.2 6.3
2017-Dec-11 05:00N 54°18' E 010°06'0 0.0 030 / 14983.1 1.4-2.3 6.4
2017-Dec-11 04:00N 54°18' E 010°06'0 0.0 030 / 8982.3 1.4-2.1 7.0
2017-Dec-11 03:00N 54°18' E 010°06'0 0.0 040 / 8981.0 0.9-1.4 7.1
2017-Dec-11 02:00N 54°18' E 010°06'0 0.0 060 / 10979.8 1.2-1.1 7.1
2017-Dec-11 01:00N 54°18' E 010°06'0 0.0 050 / 12979.1 1.8-0.7 7.7
2017-Dec-11 00:00N 54°18' E 010°06'0 0.0 060 / 10979.0 -0.3-2.6 7.7
2017-Dec-10 23:00N 54°18' E 010°06'0 0.0 080 / 8979.2 0.1-2.1 7.6
2017-Dec-10 22:00N 54°18' E 010°06'0 0.0 090 / 8979.4 -0.4-2.8 7.7
2017-Dec-10 21:00N 54°18' E 010°06'0 0.0 090 / 6979.7 -0.4-2.7 7.7
2017-Dec-10 20:00N 54°18' E 010°06'0 0.0 120 / 12980.3 -0.2-3.4 7.7
2017-Dec-10 19:00N 54°18' E 010°06'0 0.0 120 / 8981.1 -0.3-2.8 7.7
2017-Dec-10 18:00N 54°18' E 010°06'0 0.0 130 / 8982.0 0.1-2.6 7.7
2017-Dec-10 17:00N 54°18' E 010°06'0 0.0 130 / 10982.8 -0.2-1.4 7.7
2017-Dec-10 16:00N 54°18' E 010°06'0 0.0 130 / 10983.7 0.7-2.0 7.7
2017-Dec-10 15:00N 54°18' E 010°06'0 0.0 130 / 8984.5 0.9-2.3 7.6
2017-Dec-10 14:00N 54°18' E 010°06'0 0.0 140 / 6985.6 0.9-2.9 7.5
2017-Dec-10 13:00N 54°18' E 010°06'0 0.0 160 / 6987.1 0.9-2.6 7.6
2017-Dec-10 12:00N 54°18' E 010°06'0 0.0 180 / 8988.4 1.1-2.5 7.5
2017-Dec-10 11:00N 54°18' E 010°06'0 0.0 200 / 10989.7 1.3-2.3 7.5
2017-Dec-10 10:00N 54°18' E 010°06'7 6.9 210 / 10991.5 1.1-1.9 7.3
2017-Dec-10 09:00N 54°24' E 010°12'7 6.9 200 / 17992.3 1.2-1.9 6.5
2017-Dec-10 08:00N 54°30' E 010°18'7 6.9 200 / 25992.5 1.6-2.4 6.6
2017-Dec-10 07:00N 54°36' E 010°24'0 0.0 210 / 29993.4 2.1-1.0 6.5
2017-Dec-10 06:00N 54°36' E 010°24'0 0.0 220 / 29994.1 1.3-0.4 6.6
2017-Dec-10 05:00N 54°36' E 010°24'3 3.5 210 / 29994.8 1.4 0.1 6.6
2017-Dec-10 04:00N 54°36' E 010°18'0 0.0 210 / 27995.0 1.7-0.5 6.7
2017-Dec-10 03:00N 54°36' E 010°18'3 3.5 210 / 27996.3 1.8 0.4 6.7
2017-Dec-10 02:00N 54°36' E 010°24'3 3.5 220 / 27997.2 1.9 0.5 6.6
2017-Dec-10 01:00N 54°36' E 010°18'0 0.0 220 / 29997.3 1.7 0.5 6.7
2017-Dec-10 00:00N 54°36' E 010°18'0 0.0 220 / 27998.5 1.6 0.2 6.7
2017-Dec-09 23:00N 54°36' E 010°18'0 0.0 210 / 27999.1 1.8-0.0 6.7
2017-Dec-09 22:00N 54°36' E 010°18'0 0.0 220 / 21999.6 2.2 1.1 6.7
2017-Dec-09 21:00N 54°36' E 010°18'3 3.5 250 / 191000.3 1.1 0.2 6.7
2017-Dec-09 20:00N 54°36' E 010°24'3 3.5 220 / 231000.6 1.7 0.6 6.7
2017-Dec-09 19:00N 54°36' E 010°30'1010.4 220 / 211000.7 3.0-0.1 6.7
2017-Dec-09 18:00N 54°36' E 010°48'1 2.5 240 / 251000.1 3.9 0.8 6.5
2017-Dec-09 17:29N 54°36' E 010°50'510.1
2017-Dec-09 17:00N 54°36' E 010°58'4309.2
2017-Dec-09 17:00N 54°36' E 011°06'1 1.1 250 / 251000.1 4.3 0.7 6.5
2017-Dec-09 16:31N 54°36' E 011°07'5 9.4
2017-Dec-09 16:01N 54°35' E 011°15'2123.0
2017-Dec-09 16:00N 54°36' E 011°18'4 8.2 240 / 271000.2 4.0 0.5 6.4
2017-Dec-09 15:30N 54°33' E 011°22'917.4
2017-Dec-09 15:00N 54°24' E 011°24'42601.0 270 / 231001.0 4.1-0.5 6.4
2017-Dec-09 14:59N 54°28' E 011°24'4 8.3
2017-Dec-09 14:30N 54°24' E 011°25'3 6.7
2017-Dec-09 14:00N 54°21' E 011°29'3204.1
2017-Dec-09 14:00N 54°18' E 011°30'4 4.5 260 / 271000.8 4.9 0.2 6.6
2017-Dec-09 13:01N 54°18' E 011°37'0 4.2
2017-Dec-09 13:00N 54°18' E 011°38'3267.4
2017-Dec-09 13:00N 54°18' E 011°42'2 3.2 260 / 271000.3 4.8 0.7 6.5
2017-Dec-09 12:30N 54°19' E 011°41'2 4.3
2017-Dec-09 12:00N 54°21' E 011°44'3175.4
2017-Dec-09 12:00N 54°18' E 011°42'3 6.4 260 / 271000.2 4.4 0.8 6.6
2017-Dec-09 11:30N 54°21' E 011°44'0 0.3
2017-Dec-09 11:00N 54°21' E 011°44'1 1.2
2017-Dec-09 10:30N 54°20' E 011°43'2 4.7
2017-Dec-09 10:00N 54°18' E 011°42'311.6 270 / 251000.2 4.2 0.9 6.5
2017-Dec-09 09:46N 54°20' E 011°43'3 9.4
2017-Dec-09 09:30N 54°18' E 011°42'3 6.4
2017-Dec-09 09:00N 54°15' E 011°40'3187.0
2017-Dec-09 09:00N 54°12' E 011°42'3 5.3 250 / 27999.5 3.3 1.1 6.6
2017-Dec-09 08:30N 54°14' E 011°44'3 6.7
2017-Dec-09 08:00N 54°12' E 011°48'2 8.4 250 / 21998.9 3.7 1.9 6.6
2017-Dec-09 07:46N 54°14' E 011°48'2 7.0
2017-Dec-09 07:29N 54°14' E 011°44'2 4.8
2017-Dec-09 07:00N 54°14' E 011°40'2115.2
2017-Dec-09 07:00N 54°12' E 011°42'2 3.9 240 / 27998.6 3.4 1.2 6.5
2017-Dec-09 06:30N 54°14' E 011°44'2 4.0
2017-Dec-09 06:00N 54°14' E 011°47'2250.8
2017-Dec-09 06:00N 54°12' E 011°48'2 3.8 230 / 27998.9 2.1 0.8 6.4
2017-Dec-09 05:30N 54°14' E 011°47'1 1.3
2017-Dec-09 05:00N 54°13' E 011°47'1112.4
2017-Dec-09 05:00N 54°12' E 011°48'1 3.0 230 / 27998.9 2.7 0.5 6.5
2017-Dec-09 04:30N 54°13' E 011°47'0 0.3
2017-Dec-09 04:00N 54°13' E 011°47'193.9
2017-Dec-09 04:00N 54°12' E 011°48'2 3.2 230 / 27999.1 2.6-0.2 6.5
2017-Dec-09 03:30N 54°13' E 011°47'0 0.5
2017-Dec-09 03:00N 54°14' E 011°47'2118.1
2017-Dec-09 03:00N 54°12' E 011°48'2 4.2 220 / 27999.5 2.3-0.1 6.5
2017-Dec-09 02:30N 54°14' E 011°47'0 0.4
2017-Dec-09 02:00N 54°14' E 011°47'2122.3
2017-Dec-09 02:00N 54°12' E 011°48'2 3.9 220 / 291000.0 2.0-0.7 6.5
2017-Dec-09 01:29N 54°14' E 011°47'0 0.1
2017-Dec-09 01:00N 54°14' E 011°47'2262.7
2017-Dec-09 01:00N 54°12' E 011°48'2 3.7 220 / 271000.2 2.5 0.1 6.6
2017-Dec-09 00:30N 54°14' E 011°47'0 0.1
2017-Dec-09 00:01N 54°14' E 011°47'2109.8
2017-Dec-09 00:00N 54°12' E 011°48'2 3.6 230 / 311000.3 2.5-0.6 6.6
2017-Dec-08 23:31N 54°14' E 011°47'0 0.3
2017-Dec-08 23:00N 54°14' E 011°47'2130.8
2017-Dec-08 23:00N 54°12' E 011°48'2 3.7 240 / 311000.1 3.0-0.5 6.6
2017-Dec-08 22:30N 54°14' E 011°47'0 0.7
2017-Dec-08 22:00N 54°14' E 011°48'2142.8
2017-Dec-08 22:00N 54°12' E 011°48'3 6.4 240 / 331000.3 3.2 0.1 6.5
2017-Dec-08 21:30N 54°15' E 011°48'4 8.6
2017-Dec-08 21:00N 54°18' E 011°54'263.3 250 / 35999.9 3.5-0.4 6.6
2017-Dec-08 20:57N 54°17' E 011°50'3 5.6
2017-Dec-08 20:30N 54°19' E 011°53'5 9.8
2017-Dec-08 20:00N 54°23' E 011°57'2205.6
2017-Dec-08 20:00N 54°24' E 012°00'9 9.2 240 / 33999.5 3.7 0.5 6.7
2017-Dec-08 19:00N 54°30' E 012°12'7 6.9 250 / 31998.6 4.3 0.7 6.6
2017-Dec-08 18:00N 54°36' E 012°18'1212.0 240 / 25998.5 4.6 0.7 6.4
2017-Dec-08 17:00N 54°42' E 012°36'1212.0 240 / 25997.8 4.6 1.6 6.8
2017-Dec-08 16:00N 54°48' E 012°54'1010.4 240 / 25997.6 4.6 1.5 6.9
2017-Dec-08 15:00N 54°48' E 013°12'1010.4 240 / 25997.1 4.7 1.4 7.3
2017-Dec-08 14:00N 54°48' E 013°30'7 6.9 240 / 27997.0 5.0 1.8 7.2
2017-Dec-08 13:00N 54°48' E 013°42'3 3.5 240 / 31996.6 4.9 0.8 7.3
2017-Dec-08 12:00N 54°48' E 013°48'0 0.0 250 / 27996.8 5.1 1.4 7.1
2017-Dec-08 11:00N 54°48' E 013°48'0 0.0 250 / 29997.1 5.0 1.0 7.1
2017-Dec-08 10:00N 54°48' E 013°48'6 6.0 230 / 23997.3 4.9 1.8 7.1
2017-Dec-08 09:00N 54°42' E 013°48'6 6.0 230 / 23996.9 5.0 1.3 7.2
2017-Dec-08 08:00N 54°48' E 013°48'1212.0 230 / 29996.7 5.9 2.8 7.1
2017-Dec-08 07:00N 54°42' E 014°06'1212.0 240 / 27996.7 6.3 3.1 7.1
2017-Dec-08 06:00N 54°36' E 014°24'1212.0 230 / 25996.6 6.7 3.6 7.3
2017-Dec-08 05:00N 54°42' E 014°42'6 6.4 230 / 25996.1 6.6 4.3 6.8
2017-Dec-08 04:04N 54°44' E 014°52'684.1
2017-Dec-08 04:00N 54°48' E 015°00'7 6.9 230 / 27996.0 6.8 4.6 7.5
2017-Dec-08 03:00N 54°48' E 015°12'9 9.2 230 / 27996.2 6.7 5.0 7.1
2017-Dec-08 02:00N 54°54' E 015°24'7 6.9 230 / 29996.1 6.2 4.7 7.1
2017-Dec-08 01:00N 54°54' E 015°36'9 9.1 220 / 27996.7 5.9 4.7 7.1
2017-Dec-08 00:00N 55°00' E 015°48'7 6.9 220 / 31997.1 5.6 4.4 7.1
2017-Dec-07 23:00N 55°00' E 016°00'9 9.1 220 / 33997.4 5.4 4.2 7.3
2017-Dec-07 22:00N 55°06' E 016°12'7 6.9 210 / 31998.4 5.8 4.4 7.2
2017-Dec-07 21:00N 55°06' E 016°24'9 9.1 210 / 33999.0 5.6 4.3 7.2
2017-Dec-07 20:00N 55°12' E 016°36'7 6.8 210 / 331000.1 5.2 4.1 7.2
2017-Dec-07 19:00N 55°12' E 016°48'7 6.9 210 / 331000.8 5.3 3.4 6.9
2017-Dec-07 18:00N 55°18' E 016°54'7 6.8 210 / 351002.4 6.0 2.5 6.5
2017-Dec-07 17:00N 55°18' E 017°06'9 9.1 210 / 331003.7 6.0 2.4 6.4
2017-Dec-07 16:00N 55°12' E 017°18'7 6.8 210 / 331004.5 6.4 2.2 6.4
2017-Dec-07 15:00N 55°12' E 017°30'7 6.8 220 / 331005.8 6.4 2.0 6.3
2017-Dec-07 14:00N 55°12' E 017°42'7 6.8 220 / 311006.5 6.6 1.7 6.4
2017-Dec-07 13:00N 55°12' E 017°54'7 6.8 230 / 331007.1 6.7 2.0 6.5
2017-Dec-07 12:00N 55°12' E 018°06'9 4.6 240 / 331007.9 7.0 2.9 6.5
2017-Dec-07 10:00N 55°06' E 018°18'3 3.4 240 / 311009.5 7.4 4.2 6.7
2017-Dec-07 09:00N 55°06' E 018°12'4 4.2 240 / 291009.4 7.5 4.5 6.7
2017-Dec-07 08:05N 55°08' E 018°18'224.1
2017-Dec-07 08:00N 55°06' E 018°18'238.5 250 / 291010.1 7.6 4.7 6.9
2017-Dec-07 07:56N 55°08' E 018°19'2 3.8
2017-Dec-07 07:24N 55°09' E 018°22'4 8.9
2017-Dec-07 07:00N 55°12' E 018°24'3 3.4 250 / 311009.8 7.5 4.8 6.7
2017-Dec-07 06:00N 55°12' E 018°30'0 1.2 250 / 291010.0 7.5 5.3 7.0
2017-Dec-07 05:41N 55°12' E 018°30'0 0.7
2017-Dec-07 05:28N 55°12' E 018°30'0 0.6
2017-Dec-07 05:00N 55°12' E 018°30'013.7 250 / 291009.9 7.5 5.3 7.0
2017-Dec-07 04:57N 55°12' E 018°29'0 0.2
2017-Dec-07 04:30N 55°12' E 018°29'1 1.1
2017-Dec-07 04:00N 55°12' E 018°30'0 2.5 250 / 331009.7 7.7 5.2 7.0
2017-Dec-07 03:48N 55°12' E 018°29'0 0.3
2017-Dec-07 03:28N 55°12' E 018°29'0 0.8
2017-Dec-07 03:00N 55°12' E 018°30'0121.1 250 / 331010.1 7.6 5.6 7.0
2017-Dec-07 02:59N 55°12' E 018°30'0 0.3
2017-Dec-07 02:30N 55°12' E 018°30'0 0.0
2017-Dec-07 02:00N 55°12' E 018°30'0 2.5
2017-Dec-07 02:00N 55°12' E 018°30'0 0.5 250 / 291010.4 7.5 6.3 7.0
2017-Dec-07 01:24N 55°12' E 018°30'0 0.7
2017-Dec-07 01:00N 55°12' E 018°30'010.2 260 / 311010.3 7.8 6.1 7.0
2017-Dec-07 00:57N 55°12' E 018°30'0 0.4
2017-Dec-07 00:29N 55°11' E 018°30'1 1.3
2017-Dec-07 00:00N 55°12' E 018°30'160.6 270 / 271010.7 7.7 6.3 6.8
2017-Dec-06 23:59N 55°11' E 018°29'0 0.4
2017-Dec-06 23:21N 55°11' E 018°29'1 3.3
2017-Dec-06 23:00N 55°12' E 018°30'145.8 270 / 291010.7 7.4 6.7 6.8
2017-Dec-06 22:58N 55°11' E 018°29'0 0.2
2017-Dec-06 22:27N 55°11' E 018°29'1 2.9
2017-Dec-06 22:00N 55°12' E 018°30'0 0.0 270 / 291010.5 7.5 6.7 6.8
2017-Dec-06 21:00N 55°12' E 018°30'1 6.2 280 / 271010.7 7.5 6.8 6.8
2017-Dec-06 20:50N 55°11' E 018°29'1 1.2
2017-Dec-06 20:00N 55°12' E 018°30'0 0.0 270 / 271010.6 7.4 6.8 6.8
2017-Dec-06 19:00N 55°12' E 018°30'0 0.0 270 / 251010.6 7.3 6.8 6.8
2017-Dec-06 18:00N 55°12' E 018°30'1010.3 270 / 231010.7 7.2 6.7 6.8
2017-Dec-06 17:00N 55°12' E 018°12'0 0.0 270 / 191011.1 7.1 6.7 6.9
2017-Dec-06 16:00N 55°12' E 018°12'0 0.0 270 / 251011.1 7.3 6.3 7.0
2017-Dec-06 15:00N 55°12' E 018°12'6 6.0 270 / 271011.0 7.0 6.3 6.9
2017-Dec-06 14:00N 55°06' E 018°12'3 3.4 260 / 271011.4 7.0 6.3 6.7
2017-Dec-06 13:00N 55°06' E 018°18'0 0.0 260 / 291011.1 6.9 5.8 6.8
2017-Dec-06 12:00N 55°06' E 018°18'7 6.9 280 / 211011.4 7.0 5.9 6.7
2017-Dec-06 11:00N 55°12' E 018°12'7 6.9 270 / 311011.4 7.4 5.4 6.9
2017-Dec-06 10:00N 55°06' E 018°18'7 6.9 280 / 331010.9 7.5 5.5 6.8
2017-Dec-06 09:00N 55°12' E 018°12'3 3.4 270 / 331010.5 7.2 6.1 6.9
2017-Dec-06 08:00N 55°12' E 018°18'3 3.4 270 / 331010.1 7.4 6.2 6.9
2017-Dec-06 07:00N 55°12' E 018°24'3 3.4 270 / 311010.2 7.2 6.3 6.8
2017-Dec-06 06:00N 55°12' E 018°30'0 0.0 270 / 271010.3 7.2 6.6 6.7
2017-Dec-06 05:00N 55°12' E 018°30'0 0.0 270 / 231010.8 7.1 6.7 6.8
2017-Dec-06 04:00N 55°12' E 018°30'0 0.0 280 / 211011.3 7.2 6.5 6.7
2017-Dec-06 03:00N 55°12' E 018°30'0 0.0 280 / 231011.5 7.2 6.6 6.7
2017-Dec-06 02:00N 55°12' E 018°30'0 0.0 280 / 251011.7 7.4 6.4 6.7
2017-Dec-06 01:00N 55°12' E 018°30'0 0.0 290 / 271011.7 7.5 6.5 6.7
2017-Dec-06 00:00N 55°12' E 018°30'0 0.0 280 / 251011.2 7.5 6.4 6.7
2017-Dec-05 23:00N 55°12' E 018°30'1212.5 290 / 311010.4 7.6 6.2 6.8
2017-Dec-05 22:00N 55°24' E 018°36'1212.5 290 / 331009.4 7.6 6.2 7.0
2017-Dec-05 21:00N 55°36' E 018°42'1212.0 280 / 351008.5 7.7 6.3 7.6
2017-Dec-05 20:00N 55°48' E 018°42'7 6.9 280 / 311008.0 7.5 6.1 7.2
2017-Dec-05 19:00N 55°54' E 018°48'7 6.9 270 / 271007.8 7.1 6.0 6.9
2017-Dec-05 18:00N 56°00' E 018°42'7 6.9 260 / 251008.9 6.8 5.8 6.7
2017-Dec-05 17:00N 56°06' E 018°48'7 6.9 260 / 291008.9 7.1 5.6 6.9
2017-Dec-05 16:00N 56°00' E 018°54'0 0.0 270 / 251009.0 7.0 4.8 7.2
2017-Dec-05 15:00N 56°00' E 018°54'3 3.4 270 / 191009.6 6.5 4.1 7.2
2017-Dec-05 14:00N 56°00' E 018°48'3 3.4 280 / 231010.6 6.2 4.2 6.8
2017-Dec-05 13:00N 56°00' E 018°42'7 6.7 270 / 231011.2 6.4 4.5 6.7
2017-Dec-05 12:00N 56°00' E 018°30'3 3.4 260 / 251011.8 6.2 4.7 6.6
2017-Dec-05 11:00N 56°00' E 018°36'3 3.4 230 / 211012.6 4.9 4.0 6.6
2017-Dec-05 10:00N 56°00' E 018°42'3 3.4 250 / 211014.2 5.3 0.4 6.8
2017-Dec-05 09:00N 56°00' E 018°48'0 0.0 260 / 171015.0 4.6-0.3 7.1
2017-Dec-05 08:00N 56°00' E 018°48'3 3.4 270 / 171015.2 4.6-0.7 6.9
2017-Dec-05 07:00N 56°00' E 018°42'6 6.0 280 / 121015.7 4.4-1.5 6.6
2017-Dec-05 06:00N 56°06' E 018°42'3 3.3 270 / 171015.7 4.1-0.4 6.5
2017-Dec-05 05:00N 56°06' E 018°36'0 0.0 280 / 171016.0 4.0-0.2 6.6
2017-Dec-05 04:00N 56°06' E 018°36'3 3.3 280 / 171016.2 3.5-0.5 6.5
2017-Dec-05 03:00N 56°06' E 018°42'7 6.7 280 / 161016.3 3.5-0.6 6.5
2017-Dec-05 02:00N 56°06' E 018°30'1211.7 290 / 161016.9 3.6-0.2 6.6
2017-Dec-05 01:00N 56°00' E 018°12'1211.7 290 / 141017.2 3.3-0.5 6.4
2017-Dec-05 00:00N 55°54' E 017°54'1313.5 300 / 141017.5 3.3-0.4 6.5
2017-Dec-04 23:00N 55°54' E 017°30'1211.8 310 / 161017.7 3.4-0.8 6.6
2017-Dec-04 22:00N 55°48' E 017°12'1211.8 310 / 161017.7 3.8-1.2 6.6
2017-Dec-04 21:00N 55°42' E 016°54'1010.1 310 / 161017.6 4.2-0.7 6.7
2017-Dec-04 20:00N 55°42' E 016°36'1211.8 320 / 141017.6 4.3-2.0 6.9
2017-Dec-04 19:00N 55°36' E 016°18'1514.8 320 / 141017.8 4.6-0.7 6.9
2017-Dec-04 18:00N 55°30' E 015°54'3 3.4 320 / 191018.0 5.2-0.2 7.1
2017-Dec-04 17:00N 55°30' E 015°48'9 4.5 320 / 171017.4 5.2-0.3 7.3
2017-Dec-04 15:00N 55°24' E 015°36'3 3.4 310 / 191016.1 5.7-1.0 7.3
2017-Dec-04 14:00N 55°24' E 015°42'7 6.9 300 / 161015.7 5.3-0.2 7.2
2017-Dec-04 13:00N 55°18' E 015°48'3 3.4 320 / 171015.3 5.0-1.4 7.2
2017-Dec-04 12:00N 55°18' E 015°54'0 0.0 330 / 211014.5 4.7-0.8 7.4
2017-Dec-04 11:00N 55°18' E 015°54'7 6.9 330 / 211014.5 6.1-1.7 7.2
2017-Dec-04 10:00N 55°24' E 015°48'3 3.4 340 / 191014.0 4.6-0.5 7.2
2017-Dec-04 09:00N 55°24' E 015°42'3 3.4 340 / 171013.5 4.6-0.4 7.3
2017-Dec-04 08:00N 55°24' E 015°36'3511.5 330 / 191012.5 4.6-0.4 7.3
2017-Dec-04 05:00N 54°54' E 015°06'553.1 310 / 171012.0 3.8 0.2 6.9
2017-Dec-04 04:54N 54°58' E 015°11'411.2
2017-Dec-04 04:30N 54°56' E 015°05'612.5
2017-Dec-04 04:01N 54°56' E 014°54'4230.0
2017-Dec-04 04:00N 54°54' E 014°48'3 6.1 320 / 191011.9 5.3 1.1 6.6
2017-Dec-04 03:31N 54°55' E 014°43'612.2
2017-Dec-04 03:00N 54°55' E 014°33'5364.5
2017-Dec-04 03:00N 54°54' E 014°24'1 2.3 320 / 211012.1 5.7 2.6 7.2
2017-Dec-04 02:30N 54°54' E 014°22'918.1
2017-Dec-04 02:00N 54°54' E 014°06'1413.8 310 / 211012.5 5.8 2.5 7.3
2017-Dec-04 01:00N 54°54' E 013°42'1212.0 310 / 231012.6 5.6 2.3 7.2
2017-Dec-04 00:00N 54°48' E 013°24'1010.4 310 / 251012.9 5.6 0.9 7.3
2017-Dec-03 23:00N 54°48' E 013°06'1515.1 300 / 231013.4 5.6 1.0 7.5
2017-Dec-03 22:00N 54°42' E 012°42'1212.0 300 / 251013.7 6.0 1.1 7.4
2017-Dec-03 21:00N 54°36' E 012°24'4 4.7 300 / 251013.9 6.3 1.2 7.2
2017-Dec-03 20:12N 54°34' E 012°18'212.2
2017-Dec-03 20:00N 54°32' E 012°17'2176.5
2017-Dec-03 20:00N 54°30' E 012°18'5 9.8 290 / 271014.3 7.0 1.7 7.2
2017-Dec-03 19:30N 54°26' E 012°13'611.7
2017-Dec-03 19:00N 54°25' E 012°03'5379.0
2017-Dec-03 19:00N 54°24' E 011°54'1212.1 290 / 211015.0 7.4 2.2 7.0
2017-Dec-03 18:00N 54°30' E 011°36'4 6.0 290 / 171015.3 7.2 3.4 6.7
2017-Dec-03 17:21N 54°30' E 011°29'412.9
2017-Dec-03 17:01N 54°32' E 011°23'5309.7
2017-Dec-03 17:00N 54°36' E 011°18'3 7.2 280 / 171015.2 7.2 4.2 6.8
2017-Dec-03 16:31N 54°34' E 011°13'612.3
2017-Dec-03 16:01N 54°35' E 011°02'5284.8
2017-Dec-03 16:00N 54°36' E 010°54'2 4.4 290 / 161015.4 7.2 4.1 6.3
2017-Dec-03 15:30N 54°35' E 010°51'917.3
2017-Dec-03 15:00N 54°36' E 010°36'3354.9 290 / 161015.4 7.4 4.6 7.5
2017-Dec-03 14:59N 54°34' E 010°40'610.0
2017-Dec-03 14:26N 54°34' E 010°30'4 9.2
2017-Dec-03 14:00N 54°36' E 010°24'0 0.0 280 / 141015.1 7.2 4.6 7.3
2017-Dec-03 13:00N 54°36' E 010°24'0 0.0 270 / 161015.0 7.1 4.6 7.2
2017-Dec-03 12:00N 54°36' E 010°24'3 3.5 240 / 161015.4 6.4 5.3 7.2
2017-Dec-03 11:00N 54°36' E 010°30'3 3.1 230 / 171015.7 5.8 4.7 7.4
2017-Dec-03 10:07N 54°34' E 010°33'323.8
2017-Dec-03 10:00N 54°36' E 010°36'7 6.9 220 / 231015.9 4.0 3.0 7.3
2017-Dec-03 09:00N 54°30' E 010°42'4 5.9 220 / 231015.8 3.8 2.6 6.7
2017-Dec-03 08:15N 54°33' E 010°47'1 3.3
2017-Dec-03 08:00N 54°33' E 010°49'3241.2
2017-Dec-03 08:00N 54°36' E 010°48'1 2.6 210 / 271015.2 3.3 2.8 6.4
2017-Dec-03 07:30N 54°37' E 010°49'510.8
2017-Dec-03 07:01N 54°42' E 010°51'6345.6
2017-Dec-03 07:00N 54°48' E 010°54'2 3.2 210 / 251014.8 3.7 3.3 6.9
2017-Dec-03 06:31N 54°48' E 010°51'510.6
2017-Dec-03 06:01N 54°53' E 010°53'175.2
2017-Dec-03 06:00N 54°54' E 010°54'4 8.3 220 / 251015.1 3.7 3.0 7.1
2017-Dec-03 05:31N 54°57' E 010°58'510.6
2017-Dec-03 05:00N 55°02' E 011°01'4261.1
2017-Dec-03 05:00N 55°06' E 011°00'2 4.9 220 / 211015.3 3.8 3.3 7.2
2017-Dec-03 04:29N 55°08' E 011°02'1020.6
2017-Dec-03 04:00N 55°18' E 011°06'7 6.9 220 / 251015.1 3.8 2.8 7.1
2017-Dec-03 03:00N 55°24' E 011°00'1413.8 220 / 231015.4 3.4 2.3 7.1
2017-Dec-03 02:00N 55°36' E 010°48'1212.0 220 / 251015.4 3.4 2.2 7.2
2017-Dec-03 01:00N 55°48' E 010°48'7 6.9 230 / 271015.6 4.1 3.4 7.0
2017-Dec-03 00:00N 55°54' E 010°54'1413.7 210 / 271015.9 5.0 3.8 7.3
2017-Dec-02 23:00N 56°06' E 011°06'6 6.0 220 / 291015.9 4.9 3.7 7.3
2017-Dec-02 22:00N 56°12' E 011°06'1212.0 220 / 311015.8 5.3 4.0 7.6
2017-Dec-02 21:00N 56°24' E 011°06'1212.4 210 / 271015.8 5.3 3.9 7.3
2017-Dec-02 20:00N 56°36' E 011°00'1212.4 210 / 251016.0 5.3 4.2 7.9
2017-Dec-02 19:00N 56°48' E 010°54'1212.0 220 / 291015.8 5.5 4.1 7.6
2017-Dec-02 18:00N 57°00' E 010°54'1413.7 210 / 271015.6 5.4 4.2 7.3
2017-Dec-02 17:00N 57°12' E 010°42'1212.0 220 / 271015.2 4.9 4.0 7.2
2017-Dec-02 16:00N 57°24' E 010°42'5 6.7 210 / 231015.2 4.8 4.2 6.3
2017-Dec-02 15:14N 57°29' E 010°44'730.0
2017-Dec-02 15:00N 57°36' E 010°42'1 4.3 210 / 231014.5 5.5 4.5 6.2
2017-Dec-02 14:42N 57°36' E 010°44'413.0
2017-Dec-02 14:22N 57°40' E 010°45'512.9
2017-Dec-02 14:00N 57°45' E 010°45'4673.9
2017-Dec-02 14:00N 57°48' E 010°42'5 7.9 220 / 231014.5 6.1 5.1 7.4
2017-Dec-02 13:19N 57°48' E 010°32'1029.0
2017-Dec-02 13:00N 57°42' E 010°18'1414.2 250 / 231015.5 9.9 6.5 8.2
2017-Dec-02 12:00N 57°36' E 009°54'1414.2 250 / 231016.3 10.7 7.1 8.9
2017-Dec-02 11:00N 57°30' E 009°30'1414.2 250 / 231017.4 7.6 5.0 8.5
2017-Dec-02 10:00N 57°24' E 009°06'1111.4 250 / 191017.6 8.3 4.4 8.1
2017-Dec-02 09:00N 57°18' E 008°48'1817.7 270 / 191018.0 6.9 4.4 7.7
2017-Dec-02 08:00N 57°06' E 008°24'1413.7 260 / 191018.5 6.9 4.3 8.1
2017-Dec-02 07:00N 56°54' E 008°12'1413.7 260 / 191019.1 6.3 4.0 7.5
2017-Dec-02 06:00N 56°42' E 008°00'7 6.8 280 / 191019.3 6.6 2.8 7.5
2017-Dec-02 05:00N 56°36' E 007°54'1413.7 280 / 171019.6 7.0 2.4 7.7
2017-Dec-02 04:00N 56°24' E 007°42'1212.5 260 / 141020.0 7.3 0.1 8.4
2017-Dec-02 03:00N 56°12' E 007°36'1413.7 280 / 141020.5 7.2-2.1 9.2
2017-Dec-02 02:00N 56°00' E 007°24'1212.0 250 / 141020.8 6.0 0.7 8.7
2017-Dec-02 01:00N 55°48' E 007°24'1212.0 250 / 121021.4 6.1 0.3 8.5
2017-Dec-02 00:00N 55°36' E 007°24'1212.0 220 / 81022.0 5.2 0.2 8.3
2017-Dec-01 23:00N 55°24' E 007°24'911.4 250 / 41022.0 4.9-0.6 9.3
2017-Dec-01 22:11N 55°15' E 007°26'212.4
2017-Dec-01 22:00N 55°13' E 007°26'7414.1
2017-Dec-01 22:00N 55°06' E 007°24'1 2.7 1022.1 4.6-0.9 9.7
2017-Dec-01 21:30N 55°06' E 007°26'1224.4
2017-Dec-01 21:00N 54°54' E 007°24'6303.5 010 / 61021.7 4.4-1.410.0
2017-Dec-01 20:58N 54°60' E 007°26'715.1
2017-Dec-01 20:30N 54°53' E 007°27'1121.5
2017-Dec-01 20:00N 54°42' E 007°24'7 6.9 020 / 101021.3 4.4-1.3 9.2
2017-Dec-01 19:00N 54°36' E 007°30'1212.0 020 / 101020.9 4.4-0.810.2
2017-Dec-01 18:00N 54°24' E 007°30'6 6.0 350 / 121020.4 4.8-1.210.2
2017-Dec-01 17:00N 54°18' E 007°30'   020 / 141019.9 5.1-0.710.3
Track history (hours):
 
Tides and Currents Weather Stations Pressure Air Temp Water Temp Dewpoint Dewpoint Depression Visibility Wind Speed Wind Dir Waves Ship Positions

Oceanographic research ship Walther Herwig III (Germany)

Detailed information on ship capabilities available from University of Delaware's Ocean Information Center.

Last reported at 2017-Dec-11 16:14 UTC. Time now 2017-Dec-12 06:29 UTC.
Position N 55°05' E 011°03'.

Length 63.2 m; beam 14.8 m; draft 5.5 m.

Type: Fishing. MMSI: 211215500.

Date/timePositionNaut miles runAvg speedWind from/ knotsBaromVisibWave heightAir tempDewpointWater temp
2017-Dec-11 16:14N 55°05' E 011°03'622.0
2017-Dec-11 16:00N 55°00' E 011°00'249.6 040 / 23985.4 2.1-0.3 5.4
2017-Dec-11 15:57N 55°01' E 011°03'613.2
2017-Dec-11 15:31N 54°56' E 010°57'714.0
2017-Dec-11 15:01N 54°50' E 010°53'2114.5
2017-Dec-11 15:00N 54°48' E 010°54'511.1 040 / 17985.5 2.4-0.1 5.9
2017-Dec-11 14:30N 54°43' E 010°53'612.8
2017-Dec-11 14:01N 54°38' E 010°46'3176.8
2017-Dec-11 14:00N 54°36' E 010°42'4 7.3 040 / 19985.9 2.6-0.6 5.9
2017-Dec-11 13:26N 54°34' E 010°36'818.2
2017-Dec-11 13:00N 54°30' E 010°24'1413.9 040 / 17986.5 2.7-0.4 5.8
2017-Dec-11 12:00N 54°18' E 010°12'4 3.5 030 / 10986.3 2.3-0.3 6.2
2017-Dec-11 11:00N 54°18' E 010°06'0 0.0 040 / 10987.2 2.7-0.3 6.5
2017-Dec-11 10:00N 54°18' E 010°06'0 0.0 060 / 6987.4 2.5-1.0 6.2
2017-Dec-11 09:00N 54°18' E 010°06'0 0.0 040 / 10986.0 2.9 0.6 6.3
2017-Dec-11 08:00N 54°18' E 010°06'0 0.0 030 / 14985.0 2.5-1.0 6.1
2017-Dec-11 07:00N 54°18' E 010°06'0 0.0 030 / 8984.6 2.0-2.3 6.2
2017-Dec-11 06:00N 54°18' E 010°06'0 0.0 030 / 6985.6 1.9-2.2 6.3
2017-Dec-11 05:00N 54°18' E 010°06'0 0.0 030 / 14983.1 1.4-2.3 6.4
2017-Dec-11 04:00N 54°18' E 010°06'0 0.0 030 / 8982.3 1.4-2.1 7.0
2017-Dec-11 03:00N 54°18' E 010°06'0 0.0 040 / 8981.0 0.9-1.4 7.1
2017-Dec-11 02:00N 54°18' E 010°06'0 0.0 060 / 10979.8 1.2-1.1 7.1
2017-Dec-11 01:00N 54°18' E 010°06'0 0.0 050 / 12979.1 1.8-0.7 7.7
2017-Dec-11 00:00N 54°18' E 010°06'0 0.0 060 / 10979.0 -0.3-2.6 7.7
2017-Dec-10 23:00N 54°18' E 010°06'0 0.0 080 / 8979.2 0.1-2.1 7.6
2017-Dec-10 22:00N 54°18' E 010°06'0 0.0 090 / 8979.4 -0.4-2.8 7.7
2017-Dec-10 21:00N 54°18' E 010°06'0 0.0 090 / 6979.7 -0.4-2.7 7.7
2017-Dec-10 20:00N 54°18' E 010°06'0 0.0 120 / 12980.3 -0.2-3.4 7.7
2017-Dec-10 19:00N 54°18' E 010°06'0 0.0 120 / 8981.1 -0.3-2.8 7.7
2017-Dec-10 18:00N 54°18' E 010°06'0 0.0 130 / 8982.0 0.1-2.6 7.7
2017-Dec-10 17:00N 54°18' E 010°06'0 0.0 130 / 10982.8 -0.2-1.4 7.7
2017-Dec-10 16:00N 54°18' E 010°06'0 0.0 130 / 10983.7 0.7-2.0 7.7
2017-Dec-10 15:00N 54°18' E 010°06'0 0.0 130 / 8984.5 0.9-2.3 7.6
2017-Dec-10 14:00N 54°18' E 010°06'0 0.0 140 / 6985.6 0.9-2.9 7.5
2017-Dec-10 13:00N 54°18' E 010°06'0 0.0 160 / 6987.1 0.9-2.6 7.6
2017-Dec-10 12:00N 54°18' E 010°06'0 0.0 180 / 8988.4 1.1-2.5 7.5
2017-Dec-10 11:00N 54°18' E 010°06'0 0.0 200 / 10989.7 1.3-2.3 7.5
2017-Dec-10 10:00N 54°18' E 010°06'7 6.9 210 / 10991.5 1.1-1.9 7.3
2017-Dec-10 09:00N 54°24' E 010°12'7 6.9 200 / 17992.3 1.2-1.9 6.5
2017-Dec-10 08:00N 54°30' E 010°18'7 6.9 200 / 25992.5 1.6-2.4 6.6
2017-Dec-10 07:00N 54°36' E 010°24'0 0.0 210 / 29993.4 2.1-1.0 6.5
2017-Dec-10 06:00N 54°36' E 010°24'0 0.0 220 / 29994.1 1.3-0.4 6.6
2017-Dec-10 05:00N 54°36' E 010°24'3 3.5 210 / 29994.8 1.4 0.1 6.6
2017-Dec-10 04:00N 54°36' E 010°18'0 0.0 210 / 27995.0 1.7-0.5 6.7
2017-Dec-10 03:00N 54°36' E 010°18'3 3.5 210 / 27996.3 1.8 0.4 6.7
2017-Dec-10 02:00N 54°36' E 010°24'3 3.5 220 / 27997.2 1.9 0.5 6.6
2017-Dec-10 01:00N 54°36' E 010°18'0 0.0 220 / 29997.3 1.7 0.5 6.7
2017-Dec-10 00:00N 54°36' E 010°18'0 0.0 220 / 27998.5 1.6 0.2 6.7
2017-Dec-09 23:00N 54°36' E 010°18'0 0.0 210 / 27999.1 1.8-0.0 6.7
2017-Dec-09 22:00N 54°36' E 010°18'0 0.0 220 / 21999.6 2.2 1.1 6.7
2017-Dec-09 21:00N 54°36' E 010°18'3 3.5 250 / 191000.3 1.1 0.2 6.7
2017-Dec-09 20:00N 54°36' E 010°24'3 3.5 220 / 231000.6 1.7 0.6 6.7
2017-Dec-09 19:00N 54°36' E 010°30'1010.4 220 / 211000.7 3.0-0.1 6.7
2017-Dec-09 18:00N 54°36' E 010°48'1 2.5 240 / 251000.1 3.9 0.8 6.5
2017-Dec-09 17:29N 54°36' E 010°50'510.1
2017-Dec-09 17:00N 54°36' E 010°58'4309.2
2017-Dec-09 17:00N 54°36' E 011°06'1 1.1 250 / 251000.1 4.3 0.7 6.5
2017-Dec-09 16:31N 54°36' E 011°07'5 9.4
2017-Dec-09 16:01N 54°35' E 011°15'2123.0
2017-Dec-09 16:00N 54°36' E 011°18'4 8.2 240 / 271000.2 4.0 0.5 6.4
2017-Dec-09 15:30N 54°33' E 011°22'917.4
2017-Dec-09 15:00N 54°24' E 011°24'42601.0 270 / 231001.0 4.1-0.5 6.4
2017-Dec-09 14:59N 54°28' E 011°24'4 8.3
2017-Dec-09 14:30N 54°24' E 011°25'3 6.7
2017-Dec-09 14:00N 54°21' E 011°29'3204.1
2017-Dec-09 14:00N 54°18' E 011°30'4 4.5 260 / 271000.8 4.9 0.2 6.6
2017-Dec-09 13:01N 54°18' E 011°37'0 4.2
2017-Dec-09 13:00N 54°18' E 011°38'3267.4
2017-Dec-09 13:00N 54°18' E 011°42'2 3.2 260 / 271000.3 4.8 0.7 6.5
2017-Dec-09 12:30N 54°19' E 011°41'2 4.3
2017-Dec-09 12:00N 54°21' E 011°44'3175.4
2017-Dec-09 12:00N 54°18' E 011°42'3 6.4 260 / 271000.2 4.4 0.8 6.6
2017-Dec-09 11:30N 54°21' E 011°44'0 0.3
2017-Dec-09 11:00N 54°21' E 011°44'1 1.2
2017-Dec-09 10:30N 54°20' E 011°43'2 4.7
2017-Dec-09 10:00N 54°18' E 011°42'311.6 270 / 251000.2 4.2 0.9 6.5
2017-Dec-09 09:46N 54°20' E 011°43'3 9.4
2017-Dec-09 09:30N 54°18' E 011°42'3 6.4
2017-Dec-09 09:00N 54°15' E 011°40'3187.0
2017-Dec-09 09:00N 54°12' E 011°42'3 5.3 250 / 27999.5 3.3 1.1 6.6
2017-Dec-09 08:30N 54°14' E 011°44'3 6.7
2017-Dec-09 08:00N 54°12' E 011°48'2 8.4 250 / 21998.9 3.7 1.9 6.6
2017-Dec-09 07:46N 54°14' E 011°48'2 7.0
2017-Dec-09 07:29N 54°14' E 011°44'2 4.8
2017-Dec-09 07:00N 54°14' E 011°40'2115.2
2017-Dec-09 07:00N 54°12' E 011°42'2 3.9 240 / 27998.6 3.4 1.2 6.5
2017-Dec-09 06:30N 54°14' E 011°44'2 4.0
2017-Dec-09 06:00N 54°14' E 011°47'2250.8
2017-Dec-09 06:00N 54°12' E 011°48'2 3.8 230 / 27998.9 2.1 0.8 6.4
2017-Dec-09 05:30N 54°14' E 011°47'1 1.3
2017-Dec-09 05:00N 54°13' E 011°47'1112.4
2017-Dec-09 05:00N 54°12' E 011°48'1 3.0 230 / 27998.9 2.7 0.5 6.5
2017-Dec-09 04:30N 54°13' E 011°47'0 0.3
2017-Dec-09 04:00N 54°13' E 011°47'193.9
2017-Dec-09 04:00N 54°12' E 011°48'2 3.2 230 / 27999.1 2.6-0.2 6.5
2017-Dec-09 03:30N 54°13' E 011°47'0 0.5
2017-Dec-09 03:00N 54°14' E 011°47'2118.1
2017-Dec-09 03:00N 54°12' E 011°48'2 4.2 220 / 27999.5 2.3-0.1 6.5
2017-Dec-09 02:30N 54°14' E 011°47'0 0.4
2017-Dec-09 02:00N 54°14' E 011°47'2122.3
2017-Dec-09 02:00N 54°12' E 011°48'2 3.9 220 / 291000.0 2.0-0.7 6.5
2017-Dec-09 01:29N 54°14' E 011°47'0 0.1
2017-Dec-09 01:00N 54°14' E 011°47'2262.7
2017-Dec-09 01:00N 54°12' E 011°48'2 3.7 220 / 271000.2 2.5 0.1 6.6
2017-Dec-09 00:30N 54°14' E 011°47'0 0.1
2017-Dec-09 00:01N 54°14' E 011°47'2109.8
2017-Dec-09 00:00N 54°12' E 011°48'2 3.6 230 / 311000.3 2.5-0.6 6.6
2017-Dec-08 23:31N 54°14' E 011°47'0 0.3
2017-Dec-08 23:00N 54°14' E 011°47'2130.8
2017-Dec-08 23:00N 54°12' E 011°48'2 3.7 240 / 311000.1 3.0-0.5 6.6
2017-Dec-08 22:30N 54°14' E 011°47'0 0.7
2017-Dec-08 22:00N 54°14' E 011°48'2142.8
2017-Dec-08 22:00N 54°12' E 011°48'3 6.4 240 / 331000.3 3.2 0.1 6.5
2017-Dec-08 21:30N 54°15' E 011°48'4 8.6
2017-Dec-08 21:00N 54°18' E 011°54'263.3 250 / 35999.9 3.5-0.4 6.6
2017-Dec-08 20:57N 54°17' E 011°50'3 5.6
2017-Dec-08 20:30N 54°19' E 011°53'5 9.8
2017-Dec-08 20:00N 54°23' E 011°57'2205.6
2017-Dec-08 20:00N 54°24' E 012°00'9 9.2 240 / 33999.5 3.7 0.5 6.7
2017-Dec-08 19:00N 54°30' E 012°12'7 6.9 250 / 31998.6 4.3 0.7 6.6
2017-Dec-08 18:00N 54°36' E 012°18'1212.0 240 / 25998.5 4.6 0.7 6.4
2017-Dec-08 17:00N 54°42' E 012°36'1212.0 240 / 25997.8 4.6 1.6 6.8
2017-Dec-08 16:00N 54°48' E 012°54'1010.4 240 / 25997.6 4.6 1.5 6.9
2017-Dec-08 15:00N 54°48' E 013°12'1010.4 240 / 25997.1 4.7 1.4 7.3
2017-Dec-08 14:00N 54°48' E 013°30'7 6.9 240 / 27997.0 5.0 1.8 7.2
2017-Dec-08 13:00N 54°48' E 013°42'3 3.5 240 / 31996.6 4.9 0.8 7.3
2017-Dec-08 12:00N 54°48' E 013°48'0 0.0 250 / 27996.8 5.1 1.4 7.1
2017-Dec-08 11:00N 54°48' E 013°48'0 0.0 250 / 29997.1 5.0 1.0 7.1
2017-Dec-08 10:00N 54°48' E 013°48'6 6.0 230 / 23997.3 4.9 1.8 7.1
2017-Dec-08 09:00N 54°42' E 013°48'6 6.0 230 / 23996.9 5.0 1.3 7.2
2017-Dec-08 08:00N 54°48' E 013°48'1212.0 230 / 29996.7 5.9 2.8 7.1
2017-Dec-08 07:00N 54°42' E 014°06'1212.0 240 / 27996.7 6.3 3.1 7.1
2017-Dec-08 06:00N 54°36' E 014°24'1212.0 230 / 25996.6 6.7 3.6 7.3
2017-Dec-08 05:00N 54°42' E 014°42'6 6.4 230 / 25996.1 6.6 4.3 6.8
2017-Dec-08 04:04N 54°44' E 014°52'684.1
2017-Dec-08 04:00N 54°48' E 015°00'7 6.9 230 / 27996.0 6.8 4.6 7.5
2017-Dec-08 03:00N 54°48' E 015°12'9 9.2 230 / 27996.2 6.7 5.0 7.1
2017-Dec-08 02:00N 54°54' E 015°24'7 6.9 230 / 29996.1 6.2 4.7 7.1
2017-Dec-08 01:00N 54°54' E 015°36'9 9.1 220 / 27996.7 5.9 4.7 7.1
2017-Dec-08 00:00N 55°00' E 015°48'7 6.9 220 / 31997.1 5.6 4.4 7.1
2017-Dec-07 23:00N 55°00' E 016°00'9 9.1 220 / 33997.4 5.4 4.2 7.3
2017-Dec-07 22:00N 55°06' E 016°12'7 6.9 210 / 31998.4 5.8 4.4 7.2
2017-Dec-07 21:00N 55°06' E 016°24'9 9.1 210 / 33999.0 5.6 4.3 7.2
2017-Dec-07 20:00N 55°12' E 016°36'7 6.8 210 / 331000.1 5.2 4.1 7.2
2017-Dec-07 19:00N 55°12' E 016°48'7 6.9 210 / 331000.8 5.3 3.4 6.9
2017-Dec-07 18:00N 55°18' E 016°54'7 6.8 210 / 351002.4 6.0 2.5 6.5
2017-Dec-07 17:00N 55°18' E 017°06'9 9.1 210 / 331003.7 6.0 2.4 6.4
2017-Dec-07 16:00N 55°12' E 017°18'7 6.8 210 / 331004.5 6.4 2.2 6.4
2017-Dec-07 15:00N 55°12' E 017°30'7 6.8 220 / 331005.8 6.4 2.0 6.3
2017-Dec-07 14:00N 55°12' E 017°42'7 6.8 220 / 311006.5 6.6 1.7 6.4
2017-Dec-07 13:00N 55°12' E 017°54'7 6.8 230 / 331007.1 6.7 2.0 6.5
2017-Dec-07 12:00N 55°12' E 018°06'9 4.6 240 / 331007.9 7.0 2.9 6.5
2017-Dec-07 10:00N 55°06' E 018°18'3 3.4 240 / 311009.5 7.4 4.2 6.7
2017-Dec-07 09:00N 55°06' E 018°12'4 4.2 240 / 291009.4 7.5 4.5 6.7
2017-Dec-07 08:05N 55°08' E 018°18'224.1
2017-Dec-07 08:00N 55°06' E 018°18'238.5 250 / 291010.1 7.6 4.7 6.9
2017-Dec-07 07:56N 55°08' E 018°19'2 3.8
2017-Dec-07 07:24N 55°09' E 018°22'4 8.9
2017-Dec-07 07:00N 55°12' E 018°24'3 3.4 250 / 311009.8 7.5 4.8 6.7
2017-Dec-07 06:00N 55°12' E 018°30'0 1.2 250 / 291010.0 7.5 5.3 7.0
2017-Dec-07 05:41N 55°12' E 018°30'0 0.7
2017-Dec-07 05:28N 55°12' E 018°30'0 0.6
2017-Dec-07 05:00N 55°12' E 018°30'013.7 250 / 291009.9 7.5 5.3 7.0
2017-Dec-07 04:57N 55°12' E 018°29'0 0.2
2017-Dec-07 04:30N 55°12' E 018°29'1 1.1
2017-Dec-07 04:00N 55°12' E 018°30'0 2.5 250 / 331009.7 7.7 5.2 7.0
2017-Dec-07 03:48N 55°12' E 018°29'0 0.3
2017-Dec-07 03:28N 55°12' E 018°29'0 0.8
2017-Dec-07 03:00N 55°12' E 018°30'0121.1 250 / 331010.1 7.6 5.6 7.0
2017-Dec-07 02:59N 55°12' E 018°30'0 0.3
2017-Dec-07 02:30N 55°12' E 018°30'0 0.0
2017-Dec-07 02:00N 55°12' E 018°30'0 2.5
2017-Dec-07 02:00N 55°12' E 018°30'0 0.5 250 / 291010.4 7.5 6.3 7.0
2017-Dec-07 01:24N 55°12' E 018°30'0 0.7
2017-Dec-07 01:00N 55°12' E 018°30'010.2 260 / 311010.3 7.8 6.1 7.0
2017-Dec-07 00:57N 55°12' E 018°30'0 0.4
2017-Dec-07 00:29N 55°11' E 018°30'1 1.3
2017-Dec-07 00:00N 55°12' E 018°30'160.6 270 / 271010.7 7.7 6.3 6.8
2017-Dec-06 23:59N 55°11' E 018°29'0 0.4
2017-Dec-06 23:21N 55°11' E 018°29'1 3.3
2017-Dec-06 23:00N 55°12' E 018°30'145.8 270 / 291010.7 7.4 6.7 6.8
2017-Dec-06 22:58N 55°11' E 018°29'0 0.2
2017-Dec-06 22:27N 55°11' E 018°29'1 2.9
2017-Dec-06 22:00N 55°12' E 018°30'0 0.0 270 / 291010.5 7.5 6.7 6.8
2017-Dec-06 21:00N 55°12' E 018°30'1 6.2 280 / 271010.7 7.5 6.8 6.8
2017-Dec-06 20:50N 55°11' E 018°29'1 1.2
2017-Dec-06 20:00N 55°12' E 018°30'0 0.0 270 / 271010.6 7.4 6.8 6.8
2017-Dec-06 19:00N 55°12' E 018°30'0 0.0 270 / 251010.6 7.3 6.8 6.8
2017-Dec-06 18:00N 55°12' E 018°30'1010.3 270 / 231010.7 7.2 6.7 6.8
2017-Dec-06 17:00N 55°12' E 018°12'0 0.0 270 / 191011.1 7.1 6.7 6.9
2017-Dec-06 16:00N 55°12' E 018°12'0 0.0 270 / 251011.1 7.3 6.3 7.0
2017-Dec-06 15:00N 55°12' E 018°12'6 6.0 270 / 271011.0 7.0 6.3 6.9
2017-Dec-06 14:00N 55°06' E 018°12'3 3.4 260 / 271011.4 7.0 6.3 6.7
2017-Dec-06 13:00N 55°06' E 018°18'0 0.0 260 / 291011.1 6.9 5.8 6.8
2017-Dec-06 12:00N 55°06' E 018°18'7 6.9 280 / 211011.4 7.0 5.9 6.7
2017-Dec-06 11:00N 55°12' E 018°12'7 6.9 270 / 311011.4 7.4 5.4 6.9
2017-Dec-06 10:00N 55°06' E 018°18'7 6.9 280 / 331010.9 7.5 5.5 6.8
2017-Dec-06 09:00N 55°12' E 018°12'3 3.4 270 / 331010.5 7.2 6.1 6.9
2017-Dec-06 08:00N 55°12' E 018°18'3 3.4 270 / 331010.1 7.4 6.2 6.9
2017-Dec-06 07:00N 55°12' E 018°24'3 3.4 270 / 311010.2 7.2 6.3 6.8
2017-Dec-06 06:00N 55°12' E 018°30'0 0.0 270 / 271010.3 7.2 6.6 6.7
2017-Dec-06 05:00N 55°12' E 018°30'0 0.0 270 / 231010.8 7.1 6.7 6.8
2017-Dec-06 04:00N 55°12' E 018°30'0 0.0 280 / 211011.3 7.2 6.5 6.7
2017-Dec-06 03:00N 55°12' E 018°30'0 0.0 280 / 231011.5 7.2 6.6 6.7
2017-Dec-06 02:00N 55°12' E 018°30'0 0.0 280 / 251011.7 7.4 6.4 6.7
2017-Dec-06 01:00N 55°12' E 018°30'0 0.0 290 / 271011.7 7.5 6.5 6.7
2017-Dec-06 00:00N 55°12' E 018°30'0 0.0 280 / 251011.2 7.5 6.4 6.7
2017-Dec-05 23:00N 55°12' E 018°30'1212.5 290 / 311010.4 7.6 6.2 6.8
2017-Dec-05 22:00N 55°24' E 018°36'1212.5 290 / 331009.4 7.6 6.2 7.0
2017-Dec-05 21:00N 55°36' E 018°42'1212.0 280 / 351008.5 7.7 6.3 7.6
2017-Dec-05 20:00N 55°48' E 018°42'7 6.9 280 / 311008.0 7.5 6.1 7.2
2017-Dec-05 19:00N 55°54' E 018°48'7 6.9 270 / 271007.8 7.1 6.0 6.9
2017-Dec-05 18:00N 56°00' E 018°42'7 6.9 260 / 251008.9 6.8 5.8 6.7
2017-Dec-05 17:00N 56°06' E 018°48'7 6.9 260 / 291008.9 7.1 5.6 6.9
2017-Dec-05 16:00N 56°00' E 018°54'0 0.0 270 / 251009.0 7.0 4.8 7.2
2017-Dec-05 15:00N 56°00' E 018°54'3 3.4 270 / 191009.6 6.5 4.1 7.2
2017-Dec-05 14:00N 56°00' E 018°48'3 3.4 280 / 231010.6 6.2 4.2 6.8
2017-Dec-05 13:00N 56°00' E 018°42'7 6.7 270 / 231011.2 6.4 4.5 6.7
2017-Dec-05 12:00N 56°00' E 018°30'3 3.4 260 / 251011.8 6.2 4.7 6.6
2017-Dec-05 11:00N 56°00' E 018°36'3 3.4 230 / 211012.6 4.9 4.0 6.6
2017-Dec-05 10:00N 56°00' E 018°42'3 3.4 250 / 211014.2 5.3 0.4 6.8
2017-Dec-05 09:00N 56°00' E 018°48'0 0.0 260 / 171015.0 4.6-0.3 7.1
2017-Dec-05 08:00N 56°00' E 018°48'3 3.4 270 / 171015.2 4.6-0.7 6.9
2017-Dec-05 07:00N 56°00' E 018°42'6 6.0 280 / 121015.7 4.4-1.5 6.6
2017-Dec-05 06:00N 56°06' E 018°42'3 3.3 270 / 171015.7 4.1-0.4 6.5
2017-Dec-05 05:00N 56°06' E 018°36'0 0.0 280 / 171016.0 4.0-0.2 6.6
2017-Dec-05 04:00N 56°06' E 018°36'3 3.3 280 / 171016.2 3.5-0.5 6.5
2017-Dec-05 03:00N 56°06' E 018°42'7 6.7 280 / 161016.3 3.5-0.6 6.5
2017-Dec-05 02:00N 56°06' E 018°30'1211.7 290 / 161016.9 3.6-0.2 6.6
2017-Dec-05 01:00N 56°00' E 018°12'1211.7 290 / 141017.2 3.3-0.5 6.4
2017-Dec-05 00:00N 55°54' E 017°54'1313.5 300 / 141017.5 3.3-0.4 6.5
2017-Dec-04 23:00N 55°54' E 017°30'1211.8 310 / 161017.7 3.4-0.8 6.6
2017-Dec-04 22:00N 55°48' E 017°12'1211.8 310 / 161017.7 3.8-1.2 6.6
2017-Dec-04 21:00N 55°42' E 016°54'1010.1 310 / 161017.6 4.2-0.7 6.7
2017-Dec-04 20:00N 55°42' E 016°36'1211.8 320 / 141017.6 4.3-2.0 6.9
2017-Dec-04 19:00N 55°36' E 016°18'1514.8 320 / 141017.8 4.6-0.7 6.9
2017-Dec-04 18:00N 55°30' E 015°54'3 3.4 320 / 191018.0 5.2-0.2 7.1
2017-Dec-04 17:00N 55°30' E 015°48'9 4.5 320 / 171017.4 5.2-0.3 7.3
2017-Dec-04 15:00N 55°24' E 015°36'3 3.4 310 / 191016.1 5.7-1.0 7.3
2017-Dec-04 14:00N 55°24' E 015°42'7 6.9 300 / 161015.7 5.3-0.2 7.2
2017-Dec-04 13:00N 55°18' E 015°48'3 3.4 320 / 171015.3 5.0-1.4 7.2
2017-Dec-04 12:00N 55°18' E 015°54'0 0.0 330 / 211014.5 4.7-0.8 7.4
2017-Dec-04 11:00N 55°18' E 015°54'7 6.9 330 / 211014.5 6.1-1.7 7.2
2017-Dec-04 10:00N 55°24' E 015°48'3 3.4 340 / 191014.0 4.6-0.5 7.2
2017-Dec-04 09:00N 55°24' E 015°42'3 3.4 340 / 171013.5 4.6-0.4 7.3
2017-Dec-04 08:00N 55°24' E 015°36'3511.5 330 / 191012.5 4.6-0.4 7.3
2017-Dec-04 05:00N 54°54' E 015°06'553.1 310 / 171012.0 3.8 0.2 6.9
2017-Dec-04 04:54N 54°58' E 015°11'411.2
2017-Dec-04 04:30N 54°56' E 015°05'612.5
2017-Dec-04 04:01N 54°56' E 014°54'4230.0
2017-Dec-04 04:00N 54°54' E 014°48'3 6.1 320 / 191011.9 5.3 1.1 6.6
2017-Dec-04 03:31N 54°55' E 014°43'612.2
2017-Dec-04 03:00N 54°55' E 014°33'5364.5
2017-Dec-04 03:00N 54°54' E 014°24'1 2.3 320 / 211012.1 5.7 2.6 7.2
2017-Dec-04 02:30N 54°54' E 014°22'918.1
2017-Dec-04 02:00N 54°54' E 014°06'1413.8 310 / 211012.5 5.8 2.5 7.3
2017-Dec-04 01:00N 54°54' E 013°42'1212.0 310 / 231012.6 5.6 2.3 7.2
2017-Dec-04 00:00N 54°48' E 013°24'1010.4 310 / 251012.9 5.6 0.9 7.3
2017-Dec-03 23:00N 54°48' E 013°06'1515.1 300 / 231013.4 5.6 1.0 7.5
2017-Dec-03 22:00N 54°42' E 012°42'1212.0 300 / 251013.7 6.0 1.1 7.4
2017-Dec-03 21:00N 54°36' E 012°24'4 4.7 300 / 251013.9 6.3 1.2 7.2
2017-Dec-03 20:12N 54°34' E 012°18'212.2
2017-Dec-03 20:00N 54°32' E 012°17'2176.5
2017-Dec-03 20:00N 54°30' E 012°18'5 9.8 290 / 271014.3 7.0 1.7 7.2
2017-Dec-03 19:30N 54°26' E 012°13'611.7
2017-Dec-03 19:00N 54°25' E 012°03'5379.0
2017-Dec-03 19:00N 54°24' E 011°54'1212.1 290 / 211015.0 7.4 2.2 7.0
2017-Dec-03 18:00N 54°30' E 011°36'4 6.0 290 / 171015.3 7.2 3.4 6.7
2017-Dec-03 17:21N 54°30' E 011°29'412.9
2017-Dec-03 17:01N 54°32' E 011°23'5309.7
2017-Dec-03 17:00N 54°36' E 011°18'3 7.2 280 / 171015.2 7.2 4.2 6.8
2017-Dec-03 16:31N 54°34' E 011°13'612.3
2017-Dec-03 16:01N 54°35' E 011°02'5284.8
2017-Dec-03 16:00N 54°36' E 010°54'2 4.4 290 / 161015.4 7.2 4.1 6.3
2017-Dec-03 15:30N 54°35' E 010°51'917.3
2017-Dec-03 15:00N 54°36' E 010°36'3354.9 290 / 161015.4 7.4 4.6 7.5
2017-Dec-03 14:59N 54°34' E 010°40'610.0
2017-Dec-03 14:26N 54°34' E 010°30'4 9.2
2017-Dec-03 14:00N 54°36' E 010°24'0 0.0 280 / 141015.1 7.2 4.6 7.3
2017-Dec-03 13:00N 54°36' E 010°24'0 0.0 270 / 161015.0 7.1 4.6 7.2
2017-Dec-03 12:00N 54°36' E 010°24'3 3.5 240 / 161015.4 6.4 5.3 7.2
2017-Dec-03 11:00N 54°36' E 010°30'3 3.1 230 / 171015.7 5.8 4.7 7.4
2017-Dec-03 10:07N 54°34' E 010°33'323.8
2017-Dec-03 10:00N 54°36' E 010°36'7 6.9 220 / 231015.9 4.0 3.0 7.3
2017-Dec-03 09:00N 54°30' E 010°42'4 5.9 220 / 231015.8 3.8 2.6 6.7
2017-Dec-03 08:15N 54°33' E 010°47'1 3.3
2017-Dec-03 08:00N 54°33' E 010°49'3241.2
2017-Dec-03 08:00N 54°36' E 010°48'1 2.6 210 / 271015.2 3.3 2.8 6.4
2017-Dec-03 07:30N 54°37' E 010°49'510.8
2017-Dec-03 07:01N 54°42' E 010°51'6345.6
2017-Dec-03 07:00N 54°48' E 010°54'2 3.2 210 / 251014.8 3.7 3.3 6.9
2017-Dec-03 06:31N 54°48' E 010°51'510.6
2017-Dec-03 06:01N 54°53' E 010°53'175.2
2017-Dec-03 06:00N 54°54' E 010°54'4 8.3 220 / 251015.1 3.7 3.0 7.1
2017-Dec-03 05:31N 54°57' E 010°58'510.6
2017-Dec-03 05:00N 55°02' E 011°01'4261.1
2017-Dec-03 05:00N 55°06' E 011°00'2 4.9 220 / 211015.3 3.8 3.3 7.2
2017-Dec-03 04:29N 55°08' E 011°02'1020.6
2017-Dec-03 04:00N 55°18' E 011°06'7 6.9 220 / 251015.1 3.8 2.8 7.1
2017-Dec-03 03:00N 55°24' E 011°00'1413.8 220 / 231015.4 3.4 2.3 7.1
2017-Dec-03 02:00N 55°36' E 010°48'1212.0 220 / 251015.4 3.4 2.2 7.2
2017-Dec-03 01:00N 55°48' E 010°48'7 6.9 230 / 271015.6 4.1 3.4 7.0
2017-Dec-03 00:00N 55°54' E 010°54'1413.7 210 / 271015.9 5.0 3.8 7.3
2017-Dec-02 23:00N 56°06' E 011°06'6 6.0 220 / 291015.9 4.9 3.7 7.3
2017-Dec-02 22:00N 56°12' E 011°06'1212.0 220 / 311015.8 5.3 4.0 7.6
2017-Dec-02 21:00N 56°24' E 011°06'1212.4 210 / 271015.8 5.3 3.9 7.3
2017-Dec-02 20:00N 56°36' E 011°00'1212.4 210 / 251016.0 5.3 4.2 7.9
2017-Dec-02 19:00N 56°48' E 010°54'1212.0 220 / 291015.8 5.5 4.1 7.6
2017-Dec-02 18:00N 57°00' E 010°54'1413.7 210 / 271015.6 5.4 4.2 7.3
2017-Dec-02 17:00N 57°12' E 010°42'1212.0 220 / 271015.2 4.9 4.0 7.2
2017-Dec-02 16:00N 57°24' E 010°42'5 6.7 210 / 231015.2 4.8 4.2 6.3
2017-Dec-02 15:14N 57°29' E 010°44'730.0
2017-Dec-02 15:00N 57°36' E 010°42'1 4.3 210 / 231014.5 5.5 4.5 6.2
2017-Dec-02 14:42N 57°36' E 010°44'413.0
2017-Dec-02 14:22N 57°40' E 010°45'512.9
2017-Dec-02 14:00N 57°45' E 010°45'4673.9
2017-Dec-02 14:00N 57°48' E 010°42'5 7.9 220 / 231014.5 6.1 5.1 7.4
2017-Dec-02 13:19N 57°48' E 010°32'1029.0
2017-Dec-02 13:00N 57°42' E 010°18'1414.2 250 / 231015.5 9.9 6.5 8.2
2017-Dec-02 12:00N 57°36' E 009°54'1414.2 250 / 231016.3 10.7 7.1 8.9
2017-Dec-02 11:00N 57°30' E 009°30'1414.2 250 / 231017.4 7.6 5.0 8.5
2017-Dec-02 10:00N 57°24' E 009°06'1111.4 250 / 191017.6 8.3 4.4 8.1
2017-Dec-02 09:00N 57°18' E 008°48'1817.7 270 / 191018.0 6.9 4.4 7.7
2017-Dec-02 08:00N 57°06' E 008°24'1413.7 260 / 191018.5 6.9 4.3 8.1
2017-Dec-02 07:00N 56°54' E 008°12'1413.7 260 / 191019.1 6.3 4.0 7.5
2017-Dec-02 06:00N 56°42' E 008°00'7 6.8 280 / 191019.3 6.6 2.8 7.5
2017-Dec-02 05:00N 56°36' E 007°54'1413.7 280 / 171019.6 7.0 2.4 7.7
2017-Dec-02 04:00N 56°24' E 007°42'1212.5 260 / 141020.0 7.3 0.1 8.4
2017-Dec-02 03:00N 56°12' E 007°36'1413.7 280 / 141020.5 7.2-2.1 9.2
2017-Dec-02 02:00N 56°00' E 007°24'1212.0 250 / 141020.8 6.0 0.7 8.7
2017-Dec-02 01:00N 55°48' E 007°24'1212.0 250 / 121021.4 6.1 0.3 8.5
2017-Dec-02 00:00N 55°36' E 007°24'1212.0 220 / 81022.0 5.2 0.2 8.3
2017-Dec-01 23:00N 55°24' E 007°24'911.4 250 / 41022.0 4.9-0.6 9.3
2017-Dec-01 22:11N 55°15' E 007°26'212.4
2017-Dec-01 22:00N 55°13' E 007°26'7414.1
2017-Dec-01 22:00N 55°06' E 007°24'1 2.7 1022.1 4.6-0.9 9.7
2017-Dec-01 21:30N 55°06' E 007°26'1224.4
2017-Dec-01 21:00N 54°54' E 007°24'6303.5 010 / 61021.7 4.4-1.410.0
2017-Dec-01 20:58N 54°60' E 007°26'715.1
2017-Dec-01 20:30N 54°53' E 007°27'1121.5
2017-Dec-01 20:00N 54°42' E 007°24'7 6.9 020 / 101021.3 4.4-1.3 9.2
2017-Dec-01 19:00N 54°36' E 007°30'1212.0 020 / 101020.9 4.4-0.810.2
2017-Dec-01 18:00N 54°24' E 007°30'6 6.0 350 / 121020.4 4.8-1.210.2
2017-Dec-01 17:00N 54°18' E 007°30'   020 / 141019.9 5.1-0.710.3

Dump ship's entire track history